createdAt,value
2023-04-10T00:02:40.254Z,14.43
2023-04-10T00:05:42.989Z,15.88
2023-04-10T00:08:45.269Z,13.95
2023-04-10T00:11:47.898Z,14.90
2023-04-10T00:14:50.369Z,14.40
2023-04-10T00:17:55.372Z,13.43
2023-04-10T00:20:58.010Z,13.57
2023-04-10T00:24:00.913Z,13.90
2023-04-10T00:27:03.318Z,13.65
2023-04-10T00:30:07.482Z,13.70
2023-04-10T00:33:09.905Z,13.68
2023-04-10T00:36:12.630Z,14.50
2023-04-10T00:39:15.556Z,13.40
2023-04-10T00:42:18.634Z,13.77
2023-04-10T00:45:21.104Z,14.70
2023-04-10T00:48:24.118Z,13.05
2023-04-10T00:51:27.150Z,13.73
2023-04-10T00:54:31.389Z,13.60
2023-04-10T00:57:34.140Z,14.27
2023-04-10T01:00:36.796Z,14.47
2023-04-10T01:03:44.032Z,14.25
2023-04-10T01:06:55.642Z,14.18
2023-04-10T01:10:36.446Z,13.90
2023-04-10T01:13:46.902Z,13.70
2023-04-10T01:17:01.592Z,12.83
2023-04-10T01:20:13.142Z,12.73
2023-04-10T01:23:24.861Z,12.90
2023-04-10T01:26:50.474Z,13.85
2023-04-10T01:29:57.985Z,13.30
2023-04-10T01:33:03.901Z,13.00
2023-04-10T01:36:08.465Z,13.18
2023-04-10T01:39:12.269Z,12.35
2023-04-10T01:42:16.688Z,12.57
2023-04-10T01:45:22.205Z,13.18
2023-04-10T01:48:25.497Z,12.63
2023-04-10T01:51:30.643Z,12.07
2023-04-10T01:54:35.746Z,13.68
2023-04-10T01:57:38.782Z,12.75
2023-04-10T02:00:43.156Z,13.15
2023-04-10T02:03:46.279Z,13.30
2023-04-10T02:07:00.120Z,12.70
2023-04-10T02:10:09.113Z,11.98
2023-04-10T02:13:14.706Z,12.85
2023-04-10T02:16:19.498Z,12.75
2023-04-10T02:19:24.914Z,13.10
2023-04-10T02:22:27.890Z,13.40
2023-04-10T02:25:34.109Z,14.00
2023-04-10T02:28:40.206Z,13.48
2023-04-10T02:31:43.383Z,12.77
2023-04-10T02:34:46.506Z,13.20
2023-04-10T02:37:50.721Z,13.30
2023-04-10T02:40:53.809Z,13.35
2023-04-10T02:43:56.340Z,13.30
2023-04-10T02:47:00.716Z,13.30
2023-04-10T02:50:04.922Z,13.30
2023-04-10T02:53:08.171Z,13.18
2023-04-10T02:56:11.885Z,12.95
2023-04-10T02:59:14.644Z,13.20
2023-04-10T03:02:17.366Z,13.20
2023-04-10T03:05:20.412Z,13.27
2023-04-10T03:08:22.828Z,13.50
2023-04-10T03:11:26.064Z,13.62
2023-04-10T03:14:28.580Z,14.25
2023-04-10T03:17:31.264Z,13.73
2023-04-10T03:20:33.774Z,13.70
2023-04-10T03:23:37.065Z,13.88
2023-04-10T03:26:39.534Z,13.25
2023-04-10T03:29:42.192Z,12.73
2023-04-10T03:32:44.765Z,12.90
2023-04-10T03:35:47.628Z,12.00
2023-04-10T03:38:50.137Z,13.00
2023-04-10T03:41:52.761Z,12.73
2023-04-10T03:44:55.581Z,12.37
2023-04-10T03:47:59.283Z,12.95
2023-04-10T03:51:02.986Z,12.93
2023-04-10T03:54:05.702Z,12.98
2023-04-10T03:57:08.067Z,14.05
2023-04-10T04:00:11.452Z,13.93
2023-04-10T04:03:22.265Z,13.25
2023-04-10T04:06:25.851Z,13.93
2023-04-10T04:09:29.129Z,13.55
2023-04-10T04:12:31.885Z,14.82
2023-04-10T04:15:34.846Z,15.68
2023-04-10T04:18:38.897Z,15.35
2023-04-10T04:21:44.484Z,14.33
2023-04-10T04:24:47.298Z,14.63
2023-04-10T04:27:49.921Z,15.00
2023-04-10T04:30:54.567Z,15.00
2023-04-10T04:33:57.307Z,15.10
2023-04-10T04:37:00.618Z,14.03
2023-04-10T04:40:04.390Z,14.85
2023-04-10T04:43:07.212Z,14.73
2023-04-10T04:46:10.303Z,14.38
2023-04-10T04:49:13.609Z,13.80
2023-04-10T04:52:16.658Z,14.77
2023-04-10T04:55:19.748Z,15.10
2023-04-10T04:58:24.635Z,14.87
2023-04-10T05:01:27.448Z,14.70
2023-04-10T05:04:29.973Z,14.65
2023-04-10T05:07:33.098Z,15.00
2023-04-10T05:10:36.781Z,14.07
2023-04-10T05:13:42.425Z,14.48
2023-04-10T05:16:45.561Z,14.15
2023-04-10T05:19:48.808Z,14.95
2023-04-10T05:22:53.027Z,14.87
2023-04-10T05:25:56.550Z,15.10
2023-04-10T05:28:59.647Z,14.05
2023-04-10T05:32:04.279Z,14.55
2023-04-10T05:35:08.242Z,14.48
2023-04-10T05:38:10.903Z,14.00
2023-04-10T05:41:13.498Z,14.20
2023-04-10T05:44:16.366Z,14.52
2023-04-10T05:47:21.738Z,15.82
2023-04-10T05:50:24.668Z,15.57
2023-04-10T05:53:33.048Z,14.50
2023-04-10T05:56:35.920Z,13.73
2023-04-10T05:59:38.917Z,15.35
2023-04-10T06:02:42.456Z,15.45
2023-04-10T06:05:46.746Z,14.30
2023-04-10T06:08:49.367Z,13.93
2023-04-10T06:11:53.475Z,14.68
2023-04-10T06:14:56.212Z,14.63
2023-04-10T06:17:59.128Z,14.68
2023-04-10T06:21:02.156Z,14.65
2023-04-10T06:24:04.863Z,13.93
2023-04-10T06:27:07.492Z,14.30
2023-04-10T06:30:10.949Z,15.15
2023-04-10T06:33:13.307Z,14.52
2023-04-10T06:36:16.807Z,15.48
2023-04-10T06:39:19.971Z,14.57
2023-04-10T06:42:23.597Z,15.35
2023-04-10T06:45:28.502Z,14.90
2023-04-10T06:48:32.539Z,15.38
2023-04-10T06:51:34.827Z,14.90
2023-04-10T06:54:37.438Z,16.75
2023-04-10T06:57:40.457Z,15.95
2023-04-10T07:00:43.169Z,14.73
2023-04-10T07:03:45.882Z,14.93
2023-04-10T07:06:48.538Z,13.30
2023-04-10T07:09:50.881Z,14.38
2023-04-10T07:12:53.479Z,13.80
2023-04-10T07:15:56.091Z,13.43
2023-04-10T07:18:58.976Z,13.73
2023-04-10T07:22:01.495Z,13.60
2023-04-10T07:25:04.387Z,12.63
2023-04-10T07:28:06.925Z,11.60
2023-04-10T07:31:10.686Z,11.80
2023-04-10T07:34:13.086Z,13.30
2023-04-10T07:37:15.863Z,11.50
2023-04-10T07:40:18.276Z,11.65
2023-04-10T07:43:21.313Z,10.35
2023-04-10T07:46:23.874Z,11.43
2023-04-10T07:49:27.192Z,11.70
2023-04-10T07:52:29.603Z,10.13
2023-04-10T07:55:32.368Z,11.05
2023-04-10T07:58:34.670Z,11.35
2023-04-10T08:01:37.383Z,11.23
2023-04-10T08:04:40.157Z,11.30
2023-04-10T08:07:42.553Z,10.97
2023-04-10T08:10:45.193Z,10.38
2023-04-10T08:13:47.592Z,9.63
2023-04-10T08:16:50.374Z,9.30
2023-04-10T08:19:52.840Z,9.52
2023-04-10T08:22:58.876Z,8.03
2023-04-10T08:26:06.110Z,7.53
2023-04-10T08:29:08.943Z,7.35
2023-04-10T08:32:11.376Z,7.45
2023-04-10T08:35:13.997Z,7.87
2023-04-10T08:38:16.348Z,7.47
2023-04-10T08:41:20.749Z,7.57
2023-04-10T08:44:23.164Z,6.90
2023-04-10T08:47:28.514Z,7.00
2023-04-10T08:50:33.870Z,6.60
2023-04-10T08:53:43.517Z,7.60
2023-04-10T08:56:51.267Z,7.40
2023-04-10T08:59:53.924Z,7.62
2023-04-10T09:02:58.478Z,7.60
2023-04-10T09:06:05.591Z,8.45
2023-04-10T09:09:08.230Z,8.23
2023-04-10T09:12:14.034Z,9.07
2023-04-10T09:15:16.608Z,7.93
2023-04-10T09:18:19.395Z,8.98
2023-04-10T09:21:22.130Z,8.25
2023-04-10T09:24:25.895Z,7.80
2023-04-10T09:27:33.701Z,8.45
2023-04-10T09:30:41.193Z,6.90
2023-04-10T09:33:43.615Z,7.22
2023-04-10T09:37:01.385Z,7.65
2023-04-10T09:40:04.850Z,7.17
2023-04-10T09:43:25.457Z,7.97
2023-04-10T09:46:28.862Z,7.47
2023-04-10T09:49:45.553Z,7.82
2023-04-10T09:52:57.271Z,7.87
2023-04-10T09:56:00.775Z,7.23
2023-04-10T09:59:04.883Z,6.87
2023-04-10T10:02:08.059Z,7.50
2023-04-10T10:05:11.434Z,8.32
2023-04-10T10:08:15.503Z,7.57
2023-04-10T10:11:21.176Z,7.63
2023-04-10T10:14:29.214Z,7.03
2023-04-10T10:17:46.974Z,7.45
2023-04-10T10:20:50.451Z,8.27
2023-04-10T10:23:55.078Z,8.10
2023-04-10T10:26:59.541Z,7.70
2023-04-10T10:30:11.787Z,8.40
2023-04-10T10:33:18.951Z,7.00
2023-04-10T10:36:22.635Z,7.45
2023-04-10T10:39:33.244Z,8.20
2023-04-10T10:42:42.056Z,7.80
2023-04-10T10:46:06.297Z,8.15
2023-04-10T10:49:08.954Z,8.23
2023-04-10T10:52:11.322Z,7.50
2023-04-10T10:55:22.991Z,7.22
2023-04-10T10:58:48.151Z,7.80
2023-04-10T11:02:27.345Z,8.18
2023-04-10T11:05:50.795Z,8.02
2023-04-10T11:08:54.016Z,8.05
2023-04-10T11:11:59.463Z,8.07
2023-04-10T11:15:05.241Z,7.63
2023-04-10T11:18:07.632Z,8.43
2023-04-10T11:21:18.309Z,7.55
2023-04-10T11:24:20.785Z,7.85
2023-04-10T11:27:51.831Z,7.90
2023-04-10T11:30:54.243Z,7.70
2023-04-10T11:33:57.612Z,7.65
2023-04-10T11:37:07.196Z,7.50
2023-04-10T11:40:10.316Z,8.80
2023-04-10T11:43:14.179Z,7.57
2023-04-10T11:46:16.803Z,8.00
2023-04-10T11:49:21.439Z,7.10
2023-04-10T11:52:27.973Z,7.30
2023-04-10T11:55:40.579Z,7.07
2023-04-10T11:58:43.414Z,6.78
2023-04-10T12:01:46.440Z,6.93
2023-04-10T12:04:58.667Z,7.05
2023-04-10T12:08:02.170Z,7.30
2023-04-10T12:11:05.169Z,7.35
2023-04-10T12:14:07.496Z,7.65
2023-04-10T12:17:11.848Z,6.80
2023-04-10T12:20:16.636Z,6.95
2023-04-10T12:23:19.412Z,7.72
2023-04-10T12:26:21.824Z,7.68
2023-04-10T12:29:27.792Z,7.97
2023-04-10T12:32:30.881Z,7.17
2023-04-10T12:35:42.957Z,7.47
2023-04-10T12:38:45.605Z,7.50
2023-04-10T12:41:48.313Z,6.78
2023-04-10T12:45:01.017Z,7.20
2023-04-10T12:48:03.827Z,6.60
2023-04-10T12:51:06.816Z,6.53
2023-04-10T12:54:09.644Z,6.30
2023-04-10T12:57:26.512Z,6.37
2023-04-10T13:00:29.152Z,6.00
2023-04-10T13:03:34.151Z,6.63
2023-04-10T13:06:47.672Z,5.70
2023-04-10T13:09:50.008Z,6.20
2023-04-10T13:12:52.704Z,5.78
2023-04-10T13:15:55.766Z,6.60
2023-04-10T13:18:58.391Z,6.60
2023-04-10T13:22:02.021Z,6.07
2023-04-10T13:25:05.641Z,6.12
2023-04-10T13:28:11.500Z,6.20
2023-04-10T13:31:16.067Z,6.15
2023-04-10T13:34:18.484Z,5.33
2023-04-10T13:37:21.319Z,5.85
2023-04-10T13:40:23.893Z,6.00
2023-04-10T13:43:26.614Z,6.30
2023-04-10T13:46:29.036Z,5.37
2023-04-10T13:49:32.493Z,5.67
2023-04-10T13:52:35.341Z,5.65
2023-04-10T13:55:39.039Z,5.25
2023-04-10T13:58:41.476Z,5.55
2023-04-10T14:01:44.542Z,5.85
2023-04-10T14:04:47.695Z,5.53
2023-04-10T14:07:51.950Z,5.70
2023-04-10T14:10:54.625Z,5.95
2023-04-10T14:13:57.164Z,5.20
2023-04-10T14:17:02.326Z,5.50
2023-04-10T14:20:05.303Z,5.17
2023-04-10T14:23:08.579Z,5.30
2023-04-10T14:26:11.000Z,5.03
2023-04-10T14:29:16.189Z,5.70
2023-04-10T14:32:20.691Z,5.72
2023-04-10T14:35:24.011Z,4.87
2023-04-10T14:38:26.379Z,5.30
2023-04-10T14:41:29.790Z,6.12
2023-04-10T14:44:32.325Z,5.78
2023-04-10T14:47:36.424Z,5.57
2023-04-10T14:50:39.171Z,5.90
2023-04-10T14:53:42.188Z,6.07
2023-04-10T14:56:44.867Z,6.15
2023-04-10T14:59:47.627Z,5.70
2023-04-10T15:02:50.327Z,5.78
2023-04-10T15:06:00.269Z,5.57
2023-04-10T15:09:03.320Z,5.87
2023-04-10T15:12:06.700Z,5.45
2023-04-10T15:15:09.925Z,5.10
2023-04-10T15:18:12.612Z,7.87
2023-04-10T15:21:15.894Z,5.90
2023-04-10T15:24:18.675Z,5.20
2023-04-10T15:27:21.490Z,5.90
2023-04-10T15:30:24.340Z,5.82
2023-04-10T15:33:26.925Z,5.72
2023-04-10T15:36:29.979Z,5.60
2023-04-10T15:39:32.589Z,5.68
2023-04-10T15:42:35.693Z,5.87
2023-04-10T15:45:38.382Z,5.57
2023-04-10T15:48:41.268Z,5.18
2023-04-10T15:51:43.729Z,6.30
2023-04-10T15:54:46.665Z,5.75
2023-04-10T15:57:49.172Z,5.60
2023-04-10T16:00:52.210Z,5.85
2023-04-10T16:03:55.844Z,5.87
2023-04-10T16:06:59.002Z,6.03
2023-04-10T16:10:01.908Z,6.05
2023-04-10T16:13:06.777Z,9.63
2023-04-10T16:16:15.716Z,6.37
2023-04-10T16:19:18.245Z,5.80
2023-04-10T16:22:21.068Z,5.63
2023-04-10T16:25:23.412Z,5.78
2023-04-10T16:28:26.181Z,6.00
2023-04-10T16:31:28.601Z,6.20
2023-04-10T16:34:31.269Z,5.85
2023-04-10T16:37:33.692Z,5.43
2023-04-10T16:40:36.297Z,6.72
2023-04-10T16:43:38.976Z,5.68
2023-04-10T16:46:41.690Z,6.40
2023-04-10T16:49:46.775Z,6.53
2023-04-10T16:52:49.475Z,6.63
2023-04-10T16:55:59.303Z,6.80
2023-04-10T16:59:03.455Z,6.15
2023-04-10T17:02:06.033Z,6.47
2023-04-10T17:05:09.009Z,6.85
2023-04-10T17:08:11.396Z,6.10
2023-04-10T17:11:14.406Z,6.65
2023-04-10T17:14:16.859Z,7.18
2023-04-10T17:17:19.805Z,10.60
2023-04-10T17:20:22.538Z,9.13
2023-04-10T17:23:25.518Z,6.93
2023-04-10T17:26:28.026Z,7.90
2023-04-10T17:29:30.708Z,7.57
2023-04-10T17:32:32.992Z,8.43
2023-04-10T17:35:35.835Z,8.45
2023-04-10T17:38:42.355Z,7.90
2023-04-10T17:41:45.352Z,9.13
2023-04-10T17:44:47.685Z,9.02
2023-04-10T17:47:50.377Z,8.82
2023-04-10T17:50:53.073Z,9.10
2023-04-10T17:53:55.743Z,8.87
2023-04-10T17:56:58.213Z,10.20
2023-04-10T18:00:01.047Z,9.07
2023-04-10T18:03:04.106Z,9.63
2023-04-10T18:06:07.433Z,9.60
2023-04-10T18:09:10.005Z,10.73
2023-04-10T18:12:12.879Z,9.90
2023-04-10T18:15:15.342Z,8.07
2023-04-10T18:18:18.035Z,6.78
2023-04-10T18:21:20.958Z,7.28
2023-04-10T18:24:23.588Z,6.97
2023-04-10T18:27:26.848Z,7.07
2023-04-10T18:30:29.476Z,8.15
2023-04-10T18:33:31.939Z,6.72
2023-04-10T18:36:34.656Z,7.93
2023-04-10T18:39:38.287Z,7.87
2023-04-10T18:42:41.100Z,8.00
2023-04-10T18:45:44.477Z,8.45
2023-04-10T18:48:50.341Z,8.75
2023-04-10T18:51:52.788Z,9.35
2023-04-10T18:54:57.760Z,10.00
2023-04-10T18:58:00.210Z,8.90
2023-04-10T19:01:03.273Z,7.82
2023-04-10T19:04:06.203Z,8.00
2023-04-10T19:07:09.277Z,8.27
2023-04-10T19:10:11.692Z,8.17
2023-04-10T19:13:14.413Z,8.20
2023-04-10T19:16:19.512Z,8.10
2023-04-10T19:19:22.573Z,6.85
2023-04-10T19:22:25.003Z,7.78
2023-04-10T19:25:27.837Z,7.30
2023-04-10T19:28:30.368Z,7.30
2023-04-10T19:31:33.119Z,8.07
2023-04-10T19:34:35.772Z,6.87
2023-04-10T19:37:38.646Z,7.32
2023-04-10T19:40:40.978Z,7.23
2023-04-10T19:43:43.823Z,7.70
2023-04-10T19:46:48.302Z,7.30
2023-04-10T19:49:51.106Z,7.43
2023-04-10T19:52:53.721Z,7.10
2023-04-10T19:55:56.632Z,7.23
2023-04-10T19:58:59.337Z,8.07
2023-04-10T20:02:02.467Z,7.70
2023-04-10T20:05:06.135Z,7.50
2023-04-10T20:08:08.598Z,7.80
2023-04-10T20:11:11.252Z,7.40
2023-04-10T20:14:13.697Z,7.60
2023-04-10T20:17:16.635Z,7.50
2023-04-10T20:20:19.259Z,7.35
2023-04-10T20:23:21.952Z,8.15
2023-04-10T20:26:25.866Z,8.13
2023-04-10T20:29:28.639Z,8.25
2023-04-10T20:32:31.240Z,8.52
2023-04-10T20:35:33.999Z,8.35
2023-04-10T20:38:36.806Z,9.10
2023-04-10T20:41:39.525Z,8.70
2023-04-10T20:44:41.816Z,9.57
2023-04-10T20:47:44.626Z,9.30
2023-04-10T20:50:49.270Z,8.93
2023-04-10T20:53:51.828Z,9.48
2023-04-10T20:56:54.145Z,9.97
2023-04-10T20:59:56.828Z,8.80
2023-04-10T21:02:59.934Z,9.75
2023-04-10T21:06:04.147Z,8.50
2023-04-10T21:09:06.487Z,10.07
2023-04-10T21:12:09.126Z,9.73
2023-04-10T21:15:11.594Z,11.10
2023-04-10T21:18:14.165Z,11.75
2023-04-10T21:21:16.517Z,11.15
2023-04-10T21:24:19.382Z,12.15
2023-04-10T21:27:21.755Z,11.43
2023-04-10T21:30:24.438Z,11.20
2023-04-10T21:33:26.843Z,11.35
2023-04-10T21:36:29.571Z,11.65
2023-04-10T21:39:31.923Z,12.05
2023-04-10T21:42:39.975Z,10.80
2023-04-10T21:45:42.643Z,11.02
2023-04-10T21:48:45.392Z,13.07
2023-04-10T21:51:48.025Z,11.50
2023-04-10T21:54:50.682Z,10.82
2023-04-10T21:57:53.109Z,11.63
2023-04-10T22:00:55.817Z,11.88
2023-04-10T22:03:58.657Z,11.65
2023-04-10T22:07:01.616Z,11.55
2023-04-10T22:10:05.542Z,12.18
2023-04-10T22:13:10.264Z,11.43
2023-04-10T22:16:14.879Z,12.43
2023-04-10T22:19:17.288Z,12.40
2023-04-10T22:22:21.100Z,12.30
2023-04-10T22:25:23.556Z,11.85
2023-04-10T22:28:26.222Z,12.93
2023-04-10T22:31:28.881Z,12.07
2023-04-10T22:34:31.801Z,12.70
2023-04-10T22:37:34.262Z,12.88
2023-04-10T22:40:37.002Z,12.35
2023-04-10T22:43:39.415Z,12.70
2023-04-10T22:46:42.077Z,13.68
2023-04-10T22:49:44.637Z,13.65
2023-04-10T22:52:47.372Z,12.98
2023-04-10T22:55:49.634Z,13.13
2023-04-10T22:58:52.796Z,12.50
2023-04-10T23:01:55.617Z,14.25
2023-04-10T23:04:58.500Z,13.60
2023-04-10T23:08:00.888Z,12.90
2023-04-10T23:11:03.887Z,14.13
2023-04-10T23:14:06.221Z,12.97
2023-04-10T23:17:08.874Z,13.32
2023-04-10T23:20:11.714Z,13.82
2023-04-10T23:23:14.811Z,14.05
2023-04-10T23:26:17.182Z,15.48
2023-04-10T23:29:19.799Z,14.50
2023-04-10T23:32:22.232Z,15.10
2023-04-10T23:35:26.896Z,13.85
2023-04-10T23:38:29.376Z,14.90
2023-04-10T23:41:32.547Z,14.70
2023-04-10T23:44:34.995Z,13.80
2023-04-10T23:47:37.987Z,14.57
2023-04-10T23:50:40.358Z,13.90
2023-04-10T23:53:43.324Z,15.05
2023-04-10T23:56:45.906Z,14.45
2023-04-10T23:59:49.277Z,14.83
